Skip Navigation Links
NOAA logo - Click to go to the NOAA homepage
NOAA's National Weather Service
Alaska Aviation Weather Unit
  NWS logo - Click to go to the NWS homepage
Left Navbar Graphic     17 AKDT = 01 GMT

   
NOAA is celebrating 200 years of science, service, and stewardship. Visit the NOAA 200th celebration Web site to learn more.
USA.gov is the U.S. Government's official Web portal to all Federal, state and local government Web resources and services.
Facebook
NWS on Facebook

Important Change Regarding the AAWU Web Presence

 

Over the last several months, the AAWU has been working to navigate its webpages to a nationally supported server. Security, as well as other needs, have necessitated the change.  In the process, we have made an effort to enhance the functionality of our website, as well as some of our products. As of June 27, 2017, aawu.arh.noaa.gov will be discontinued. The new AAWU web address is weather.gov/aawu. It is now live and will run in-parallel with the old site until it is discontinued. Please send any feedback or questions regarding the new webpages to nws.ar.aawu.webauthors@noaa.gov.  Thank you for your patience during this time of transition.
AAWU Home :: Display TAF Add Bookmark
METAR PAOO 251956Z AUTO 11020KT 10SM BKN017 OVC025 11/07 A2988 RMK
 AO2 PK WND 11026/1938 SLP129 T01060072=

METAR PAOO 252056Z AUTO 13023KT 10SM BKN017 BKN022 OVC029 11/07 A2986
     RMK AO2 PK WND 12029/2020 SLP123 T01060072 58015=

METAR PAOO 252156Z AUTO 11021KT 10SM OVC021 11/07 A2985 RMK AO2 PK
 WND 13030/2122 SLP118 T01060072=

METAR PAOO 252256Z AUTO 13022KT 10SM BKN021 BKN030 OVC036 11/07 A2983
     RMK AO2 PK WND 12031/2241 SLP113 T01110067=

METAR PAOO 252356Z AUTO 12023KT 10SM BKN025 OVC031 11/07 A2981 RMK
 AO2 PK WND 12028/2336 SLP106 T01110067 10117 20100 58017=


NOAA's National Weather Service
Alaska Aviation Weather Unit
6930 Sand Lake Road
Anchorage, AK 99502-1845
Disclaimer
Credits
Glossary
Privacy Policy
About Us
Career Opportunities
Contact AAWU Internet Services Site last modified: April, 17th 2012